< < Back
Terminal Aerodrome Forecast


Current Version              Previous Versions:   1  2  3  4  5  6  7  8  9  

Terminal Aerodrome Forecast

802
FTUS42 KGSP 262339
TAFAND
TAF
KAND 262339Z 2700/2724 30003KT P6SM BKN023
     FM270300 00000KT P6SM BKN040
     FM270900 00000KT 5SM BR BKN040
      TEMPO 2709/2712 2SM BR SCT003
     FM271300 04005KT P6SM BKN040=

Latest METAR

113
SAUS70 KWBC 270600 RRA
MTRAND
METAR KAND 270556Z AUTO 00000KT 10SM OVC016 05/02 A3016 RMK AO2 SLP216
T00500022 10056 20044 51011


USA.gov is the U.S. government's official web portal to all federal, state and local government web resources and services.